Perry, Utah
Current Conditions -  °F | °C
As of 6:35 PM on Tuesday 21 Oct 2014 (Local Time) from KBMC Reporting Station
Clear Clear  
Wind Chill: 14°   Ceiling: Unl
Heat Index: 14°   Visibility: 10mi
Dew Point: -1°   Wind: 9mph
Humidity: 37%   Direction: 330°NNW
Pressure: 30.03"   Gusts: NA
Location:  41.4833°N, 112.095°W
Report Text: KBMC 220035Z AUTO 33008KT 10SM CLR 14/M01 A3003 RMK AO1 T01351011
Loading
Personal Weather Stations






























Interactive Weather Map
Tropical Storm Tracking
New forecast layout! Learn more

10-Day Weather Forecast

Advertisements
Track Severe Weather on mobile